sensor_id;sensor_type;location;lat;lon;timestamp;pressure;altitude;pressure_sealevel;temperature;humidity
73860;BME280;62197;51.632;13.700;2023-07-09T00:02:11;100637.59;;;18.49;100.00
73860;BME280;62197;51.632;13.700;2023-07-09T00:04:37;100637.66;;;18.44;100.00
73860;BME280;62197;51.632;13.700;2023-07-09T00:07:03;100633.63;;;18.60;100.00
73860;BME280;62197;51.632;13.700;2023-07-09T00:09:29;100637.66;;;18.44;100.00
73860;BME280;62197;51.632;13.700;2023-07-09T00:11:55;100635.47;;;18.26;100.00
73860;BME280;62197;51.632;13.700;2023-07-09T00:14:21;100644.47;;;18.18;100.00
73860;BME280;62197;51.632;13.700;2023-07-09T00:16:46;100647.84;;;18.15;100.00
73860;BME280;62197;51.632;13.700;2023-07-09T00:19:18;100650.09;;;18.13;100.00
73860;BME280;62197;51.632;13.700;2023-07-09T00:21:45;100637.84;;;17.98;100.00
73860;BME280;62197;51.632;13.700;2023-07-09T00:24:12;100631.75;;;17.91;100.00
73860;BME280;62197;51.632;13.700;2023-07-09T00:26:38;100639.28;;;17.91;100.00
73860;BME280;62197;51.632;13.700;2023-07-09T00:29:04;100636.84;;;17.74;100.00
73860;BME280;62197;51.632;13.700;2023-07-09T00:31:29;100626.00;;;17.63;100.00
73860;BME280;62197;51.632;13.700;2023-07-09T00:33:55;100634.66;;;17.61;100.00
73860;BME280;62197;51.632;13.700;2023-07-09T00:36:28;100631.88;;;17.61;100.00
73860;BME280;62197;51.632;13.700;2023-07-09T00:38:54;100625.44;;;17.66;100.00
73860;BME280;62197;51.632;13.700;2023-07-09T00:41:23;100631.28;;;17.69;100.00
73860;BME280;62197;51.632;13.700;2023-07-09T00:43:50;100633.50;;;17.67;100.00
73860;BME280;62197;51.632;13.700;2023-07-09T00:48:45;100647.50;;;17.62;100.00
73860;BME280;62197;51.632;13.700;2023-07-09T00:51:15;100641.84;;;17.82;100.00
73860;BME280;62197;51.632;13.700;2023-07-09T00:53:44;100650.81;;;17.69;100.00
73860;BME280;62197;51.632;13.700;2023-07-09T00:56:14;100643.59;;;17.43;100.00
73860;BME280;62197;51.632;13.700;2023-07-09T00:58:42;100648.66;;;17.31;100.00
73860;BME280;62197;51.632;13.700;2023-07-09T01:01:13;100647.84;;;17.21;100.00
73860;BME280;62197;51.632;13.700;2023-07-09T01:03:45;100639.16;;;17.17;100.00
73860;BME280;62197;51.632;13.700;2023-07-09T01:06:11;100634.16;;;17.24;100.00
73860;BME280;62197;51.632;13.700;2023-07-09T01:08:39;100640.28;;;17.26;100.00
73860;BME280;62197;51.632;13.700;2023-07-09T01:11:18;100639.16;;;17.27;100.00
73860;BME280;62197;51.632;13.700;2023-07-09T01:13:54;100640.28;;;17.31;100.00
73860;BME280;62197;51.632;13.700;2023-07-09T01:16:22;100644.75;;;17.27;100.00
73860;BME280;62197;51.632;13.700;2023-07-09T01:18:52;100647.00;;;17.30;100.00
73860;BME280;62197;51.632;13.700;2023-07-09T01:21:17;100639.72;;;17.34;100.00
73860;BME280;62197;51.632;13.700;2023-07-09T01:23:44;100648.06;;;17.39;100.00
73860;BME280;62197;51.632;13.700;2023-07-09T01:26:11;100647.81;;;17.36;100.00
73860;BME280;62197;51.632;13.700;2023-07-09T01:28:37;100645.06;;;17.21;100.00
73860;BME280;62197;51.632;13.700;2023-07-09T01:31:03;100641.41;;;17.15;100.00
73860;BME280;62197;51.632;13.700;2023-07-09T01:33:29;100641.97;;;17.02;100.00
73860;BME280;62197;51.632;13.700;2023-07-09T01:35:55;100647.84;;;16.95;100.00
73860;BME280;62197;51.632;13.700;2023-07-09T01:38:26;100646.16;;;17.14;100.00
73860;BME280;62197;51.632;13.700;2023-07-09T01:40:57;100647.84;;;17.10;100.00
73860;BME280;62197;51.632;13.700;2023-07-09T01:43:23;100635.28;;;16.98;100.00
73860;BME280;62197;51.632;13.700;2023-07-09T01:45:50;100642.56;;;16.89;100.00
73860;BME280;62197;51.632;13.700;2023-07-09T01:48:17;100652.00;;;16.98;100.00
73860;BME280;62197;51.632;13.700;2023-07-09T01:50:43;100648.66;;;17.21;100.00
73860;BME280;62197;51.632;13.700;2023-07-09T01:53:12;100643.34;;;17.35;100.00
73860;BME280;62197;51.632;13.700;2023-07-09T01:55:38;100645.34;;;17.09;100.00
73860;BME280;62197;51.632;13.700;2023-07-09T01:58:03;100653.16;;;16.97;100.00
73860;BME280;62197;51.632;13.700;2023-07-09T02:00:32;100654.25;;;17.11;100.00
73860;BME280;62197;51.632;13.700;2023-07-09T02:02:59;100642.00;;;17.07;100.00
73860;BME280;62197;51.632;13.700;2023-07-09T02:05:27;100645.31;;;16.79;100.00
73860;BME280;62197;51.632;13.700;2023-07-09T02:07:52;100647.56;;;16.57;100.00
73860;BME280;62197;51.632;13.700;2023-07-09T02:10:18;100648.09;;;16.69;100.00
73860;BME280;62197;51.632;13.700;2023-07-09T02:12:44;100648.13;;;16.59;100.00
73860;BME280;62197;51.632;13.700;2023-07-09T02:15:09;100653.34;;;16.45;100.00
73860;BME280;62197;51.632;13.700;2023-07-09T02:17:35;100649.13;;;16.38;100.00
73860;BME280;62197;51.632;13.700;2023-07-09T02:20:00;100652.78;;;16.43;100.00
73860;BME280;62197;51.632;13.700;2023-07-09T02:22:26;100654.78;;;16.53;100.00
73860;BME280;62197;51.632;13.700;2023-07-09T02:24:51;100654.50;;;16.59;100.00
73860;BME280;62197;51.632;13.700;2023-07-09T02:27:19;100654.78;;;16.73;100.00
73860;BME280;62197;51.632;13.700;2023-07-09T02:29:45;100660.38;;;16.68;100.00
73860;BME280;62197;51.632;13.700;2023-07-09T02:32:17;100670.09;;;16.55;100.00
73860;BME280;62197;51.632;13.700;2023-07-09T02:34:43;100667.84;;;16.47;100.00
73860;BME280;62197;51.632;13.700;2023-07-09T02:37:08;100674.22;;;16.48;100.00
73860;BME280;62197;51.632;13.700;2023-07-09T02:39:33;100666.97;;;16.42;100.00
73860;BME280;62197;51.632;13.700;2023-07-09T02:41:59;100667.22;;;16.25;100.00
73860;BME280;62197;51.632;13.700;2023-07-09T02:44:24;100675.72;;;16.85;100.00
73860;BME280;62197;51.632;13.700;2023-07-09T02:46:49;100676.00;;;17.14;100.00
73860;BME280;62197;51.632;13.700;2023-07-09T02:49:15;100667.34;;;16.70;100.00
73860;BME280;62197;51.632;13.700;2023-07-09T02:51:40;100689.81;;;16.34;100.00
73860;BME280;62197;51.632;13.700;2023-07-09T02:54:06;100671.91;;;16.14;100.00
73860;BME280;62197;51.632;13.700;2023-07-09T02:56:32;100675.75;;;15.98;100.00
73860;BME280;62197;51.632;13.700;2023-07-09T02:58:58;100678.22;;;15.90;100.00
73860;BME280;62197;51.632;13.700;2023-07-09T03:01:24;100674.31;;;15.86;100.00
73860;BME280;62197;51.632;13.700;2023-07-09T03:03:55;100678.78;;;15.87;100.00
73860;BME280;62197;51.632;13.700;2023-07-09T03:06:21;100677.38;;;15.89;100.00
73860;BME280;62197;51.632;13.700;2023-07-09T03:08:48;100681.91;;;16.00;100.00
73860;BME280;62197;51.632;13.700;2023-07-09T03:11:14;100675.75;;;15.98;100.00
73860;BME280;62197;51.632;13.700;2023-07-09T03:13:40;100680.78;;;16.01;100.00
73860;BME280;62197;51.632;13.700;2023-07-09T03:16:05;100681.28;;;15.88;100.00
73860;BME280;62197;51.632;13.700;2023-07-09T03:18:31;100690.72;;;15.82;100.00
73860;BME280;62197;51.632;13.700;2023-07-09T03:20:56;100692.34;;;15.78;100.00
73860;BME280;62197;51.632;13.700;2023-07-09T03:23:22;100691.38;;;16.09;100.00
73860;BME280;62197;51.632;13.700;2023-07-09T03:25:47;100687.66;;;16.56;100.00
73860;BME280;62197;51.632;13.700;2023-07-09T03:28:14;100694.13;;;17.06;100.00
73860;BME280;62197;51.632;13.700;2023-07-09T03:30:44;100692.72;;;16.89;100.00
73860;BME280;62197;51.632;13.700;2023-07-09T03:33:10;100687.09;;;16.49;100.00
73860;BME280;62197;51.632;13.700;2023-07-09T03:35:35;100692.00;;;16.26;100.00
73860;BME280;62197;51.632;13.700;2023-07-09T03:38:02;100701.44;;;16.20;100.00
73860;BME280;62197;51.632;13.700;2023-07-09T03:40:27;100702.28;;;16.21;100.00
73860;BME280;62197;51.632;13.700;2023-07-09T03:42:53;100700.31;;;16.16;100.00
73860;BME280;62197;51.632;13.700;2023-07-09T03:45:18;100706.50;;;16.23;100.00
73860;BME280;62197;51.632;13.700;2023-07-09T03:47:43;100702.16;;;16.58;100.00
73860;BME280;62197;51.632;13.700;2023-07-09T03:50:09;100701.59;;;16.61;100.00
73860;BME280;62197;51.632;13.700;2023-07-09T03:52:35;100703.53;;;16.55;100.00
73860;BME280;62197;51.632;13.700;2023-07-09T03:55:01;100718.31;;;16.61;100.00
73860;BME280;62197;51.632;13.700;2023-07-09T03:57:29;100704.94;;;16.53;100.00
73860;BME280;62197;51.632;13.700;2023-07-09T03:59:54;100702.75;;;16.75;100.00
73860;BME280;62197;51.632;13.700;2023-07-09T04:02:20;100707.78;;;16.78;100.00
73860;BME280;62197;51.632;13.700;2023-07-09T04:04:45;100709.75;;;17.17;100.00
73860;BME280;62197;51.632;13.700;2023-07-09T04:07:10;100709.47;;;17.29;100.00
73860;BME280;62197;51.632;13.700;2023-07-09T04:09:36;100720.06;;;17.27;100.00
73860;BME280;62197;51.632;13.700;2023-07-09T04:12:01;100713.13;;;17.50;100.00
73860;BME280;62197;51.632;13.700;2023-07-09T04:14:28;100701.91;;;17.35;100.00
73860;BME280;62197;51.632;13.700;2023-07-09T04:16:53;100702.22;;;17.28;100.00
73860;BME280;62197;51.632;13.700;2023-07-09T04:19:18;100706.66;;;17.29;100.00
73860;BME280;62197;51.632;13.700;2023-07-09T04:21:44;100713.91;;;17.35;100.00
73860;BME280;62197;51.632;13.700;2023-07-09T04:24:09;100711.41;;;17.54;100.00
73860;BME280;62197;51.632;13.700;2023-07-09T04:26:34;100712.47;;;17.83;100.00
73860;BME280;62197;51.632;13.700;2023-07-09T04:29:00;100708.25;;;17.90;100.00
73860;BME280;62197;51.632;13.700;2023-07-09T04:31:26;100708.50;;;17.99;100.00
73860;BME280;62197;51.632;13.700;2023-07-09T04:33:51;100704.63;;;18.00;100.00
73860;BME280;62197;51.632;13.700;2023-07-09T04:36:18;100715.72;;;18.10;100.00
73860;BME280;62197;51.632;13.700;2023-07-09T04:38:43;100709.56;;;18.23;100.00
73860;BME280;62197;51.632;13.700;2023-07-09T04:41:09;100716.97;;;18.53;100.00
73860;BME280;62197;51.632;13.700;2023-07-09T04:43:34;100706.88;;;18.62;100.00
73860;BME280;62197;51.632;13.700;2023-07-09T04:45:59;100702.94;;;18.63;100.00
73860;BME280;62197;51.632;13.700;2023-07-09T04:48:25;100703.41;;;18.75;100.00
73860;BME280;62197;51.632;13.700;2023-07-09T04:50:50;100697.84;;;18.70;100.00
73860;BME280;62197;51.632;13.700;2023-07-09T04:53:16;100706.16;;;18.80;100.00
73860;BME280;62197;51.632;13.700;2023-07-09T04:55:41;100704.16;;;18.90;100.00
73860;BME280;62197;51.632;13.700;2023-07-09T04:58:07;100702.72;;;18.93;100.00
73860;BME280;62197;51.632;13.700;2023-07-09T05:00:32;100702.38;;;19.05;100.00
73860;BME280;62197;51.632;13.700;2023-07-09T05:02:57;100703.59;;;19.22;100.00
73860;BME280;62197;51.632;13.700;2023-07-09T05:05:23;100701.81;;;19.41;100.00
73860;BME280;62197;51.632;13.700;2023-07-09T05:07:48;100701.13;;;19.54;100.00
73860;BME280;62197;51.632;13.700;2023-07-09T05:10:14;100706.00;;;19.67;100.00
73860;BME280;62197;51.632;13.700;2023-07-09T05:12:50;100704.19;;;19.82;100.00
73860;BME280;62197;51.632;13.700;2023-07-09T05:15:17;100708.59;;;19.88;100.00
73860;BME280;62197;51.632;13.700;2023-07-09T05:17:44;100705.63;;;20.03;100.00
73860;BME280;62197;51.632;13.700;2023-07-09T05:20:09;100703.25;;;20.15;100.00
73860;BME280;62197;51.632;13.700;2023-07-09T05:22:35;100701.47;;;20.24;100.00
73860;BME280;62197;51.632;13.700;2023-07-09T05:25:00;100703.06;;;20.30;100.00
73860;BME280;62197;51.632;13.700;2023-07-09T05:27:25;100703.47;;;20.42;100.00
73860;BME280;62197;51.632;13.700;2023-07-09T05:29:51;100703.84;;;20.54;100.00
73860;BME280;62197;51.632;13.700;2023-07-09T05:32:16;100710.59;;;20.72;100.00
73860;BME280;62197;51.632;13.700;2023-07-09T05:34:41;100711.00;;;20.84;100.00
73860;BME280;62197;51.632;13.700;2023-07-09T05:37:07;100717.59;;;20.93;100.00
73860;BME280;62197;51.632;13.700;2023-07-09T05:39:32;100717.16;;;21.04;100.00
73860;BME280;62197;51.632;13.700;2023-07-09T05:41:57;100717.47;;;21.21;100.00
73860;BME280;62197;51.632;13.700;2023-07-09T05:44:23;100722.28;;;21.34;100.00
73860;BME280;62197;51.632;13.700;2023-07-09T05:46:48;100724.28;;;21.47;100.00
73860;BME280;62197;51.632;13.700;2023-07-09T05:49:13;100720.16;;;21.58;100.00
73860;BME280;62197;51.632;13.700;2023-07-09T05:51:39;100713.66;;;21.77;100.00
73860;BME280;62197;51.632;13.700;2023-07-09T05:54:04;100708.47;;;21.84;100.00
73860;BME280;62197;51.632;13.700;2023-07-09T05:56:29;100716.00;;;22.02;100.00
73860;BME280;62197;51.632;13.700;2023-07-09T05:58:55;100709.13;;;22.21;100.00
73860;BME280;62197;51.632;13.700;2023-07-09T06:01:22;100704.13;;;22.32;100.00
73860;BME280;62197;51.632;13.700;2023-07-09T06:03:47;100722.47;;;22.43;100.00
73860;BME280;62197;51.632;13.700;2023-07-09T06:06:12;100710.34;;;22.56;100.00
73860;BME280;62197;51.632;13.700;2023-07-09T06:08:38;100712.00;;;22.71;100.00
73860;BME280;62197;51.632;13.700;2023-07-09T06:11:04;100706.56;;;22.88;100.00
73860;BME280;62197;51.632;13.700;2023-07-09T06:13:30;100712.16;;;23.01;100.00
73860;BME280;62197;51.632;13.700;2023-07-09T06:15:56;100708.97;;;23.16;100.00
73860;BME280;62197;51.632;13.700;2023-07-09T06:18:23;100703.72;;;23.23;100.00
73860;BME280;62197;51.632;13.700;2023-07-09T06:20:54;100710.25;;;23.33;100.00
73860;BME280;62197;51.632;13.700;2023-07-09T06:23:20;100711.88;;;23.47;100.00
73860;BME280;62197;51.632;13.700;2023-07-09T06:25:46;100712.94;;;23.60;100.00
73860;BME280;62197;51.632;13.700;2023-07-09T06:28:17;100717.00;;;23.76;100.00
73860;BME280;62197;51.632;13.700;2023-07-09T06:30:43;100716.22;;;23.84;100.00
73860;BME280;62197;51.632;13.700;2023-07-09T06:33:10;100718.03;;;24.02;100.00
73860;BME280;62197;51.632;13.700;2023-07-09T06:35:36;100721.53;;;24.16;100.00
73860;BME280;62197;51.632;13.700;2023-07-09T06:38:01;100714.66;;;24.31;100.00
73860;BME280;62197;51.632;13.700;2023-07-09T06:40:28;100711.38;;;24.46;100.00
73860;BME280;62197;51.632;13.700;2023-07-09T06:42:53;100712.53;;;24.53;100.00
73860;BME280;62197;51.632;13.700;2023-07-09T06:45:19;100709.91;;;24.65;100.00
73860;BME280;62197;51.632;13.700;2023-07-09T06:47:44;100719.63;;;24.81;100.00
73860;BME280;62197;51.632;13.700;2023-07-09T06:50:09;100725.41;;;24.93;100.00
73860;BME280;62197;51.632;13.700;2023-07-09T06:52:35;100722.28;;;25.03;100.00
73860;BME280;62197;51.632;13.700;2023-07-09T06:55:00;100721.47;;;25.20;100.00
73860;BME280;62197;51.632;13.700;2023-07-09T06:57:25;100716.28;;;25.31;100.00
73860;BME280;62197;51.632;13.700;2023-07-09T06:59:51;100721.59;;;25.49;100.00
73860;BME280;62197;51.632;13.700;2023-07-09T07:02:16;100720.97;;;25.52;97.00
73860;BME280;62197;51.632;13.700;2023-07-09T07:04:42;100721.56;;;25.75;98.18
73860;BME280;62197;51.632;13.700;2023-07-09T07:07:08;100717.69;;;25.88;100.00
73860;BME280;62197;51.632;13.700;2023-07-09T07:09:34;100726.16;;;25.97;95.19
73860;BME280;62197;51.632;13.700;2023-07-09T07:11:59;100716.50;;;26.06;99.73
73860;BME280;62197;51.632;13.700;2023-07-09T07:14:24;100722.28;;;26.18;94.50
73860;BME280;62197;51.632;13.700;2023-07-09T07:16:50;100724.53;;;26.33;94.88
73860;BME280;62197;51.632;13.700;2023-07-09T07:19:15;100722.22;;;26.35;98.19
73860;BME280;62197;51.632;13.700;2023-07-09T07:21:40;100718.06;;;26.33;94.83
73860;BME280;62197;51.632;13.700;2023-07-09T07:24:06;100727.97;;;26.47;92.22
73860;BME280;62197;51.632;13.700;2023-07-09T07:26:31;100719.59;;;26.59;90.72
73860;BME280;62197;51.632;13.700;2023-07-09T07:28:56;100724.69;;;26.74;95.44
73860;BME280;62197;51.632;13.700;2023-07-09T07:31:22;100720.25;;;26.86;90.13
73860;BME280;62197;51.632;13.700;2023-07-09T07:33:47;100722.78;;;27.08;87.80
73860;BME280;62197;51.632;13.700;2023-07-09T07:36:13;100729.91;;;27.14;78.15
73860;BME280;62197;51.632;13.700;2023-07-09T07:38:38;100725.25;;;27.30;89.05
73860;BME280;62197;51.632;13.700;2023-07-09T07:41:03;100728.78;;;27.47;83.67
73860;BME280;62197;51.632;13.700;2023-07-09T07:43:29;100732.03;;;27.58;81.51
73860;BME280;62197;51.632;13.700;2023-07-09T07:45:54;100737.50;;;27.75;79.81
73860;BME280;62197;51.632;13.700;2023-07-09T07:48:20;100734.38;;;27.89;76.87
73860;BME280;62197;51.632;13.700;2023-07-09T07:50:45;100737.47;;;27.96;73.25
73860;BME280;62197;51.632;13.700;2023-07-09T07:53:13;100727.91;;;28.00;70.81
73860;BME280;62197;51.632;13.700;2023-07-09T07:55:40;100732.66;;;28.20;73.39
73860;BME280;62197;51.632;13.700;2023-07-09T07:58:05;100729.38;;;28.42;70.79
73860;BME280;62197;51.632;13.700;2023-07-09T08:00:30;100718.59;;;28.36;62.32
73860;BME280;62197;51.632;13.700;2023-07-09T08:02:56;100724.56;;;28.55;67.37
73860;BME280;62197;51.632;13.700;2023-07-09T08:05:21;100735.06;;;28.42;58.22
73860;BME280;62197;51.632;13.700;2023-07-09T08:07:48;100736.16;;;28.74;60.92
73860;BME280;62197;51.632;13.700;2023-07-09T08:10:14;100729.53;;;28.82;56.48
73860;BME280;62197;51.632;13.700;2023-07-09T08:12:40;100727.00;;;28.93;55.67
73860;BME280;62197;51.632;13.700;2023-07-09T08:15:06;100721.50;;;29.12;55.96
73860;BME280;62197;51.632;13.700;2023-07-09T08:17:32;100734.06;;;29.11;44.96
73860;BME280;62197;51.632;13.700;2023-07-09T08:19:57;100723.88;;;29.22;43.94
73860;BME280;62197;51.632;13.700;2023-07-09T08:22:23;100727.63;;;29.38;44.59
73860;BME280;62197;51.632;13.700;2023-07-09T08:24:49;100728.03;;;29.52;42.75
73860;BME280;62197;51.632;13.700;2023-07-09T08:27:14;100729.69;;;29.53;39.75
73860;BME280;62197;51.632;13.700;2023-07-09T08:29:40;100729.78;;;29.57;40.33
73860;BME280;62197;51.632;13.700;2023-07-09T08:32:07;100716.63;;;29.52;41.42
73860;BME280;62197;51.632;13.700;2023-07-09T08:34:32;100719.50;;;29.52;39.50
73860;BME280;62197;51.632;13.700;2023-07-09T08:36:58;100717.44;;;29.65;40.84
73860;BME280;62197;51.632;13.700;2023-07-09T08:39:24;100717.88;;;29.79;39.61
73860;BME280;62197;51.632;13.700;2023-07-09T08:41:54;100715.22;;;29.86;39.48
73860;BME280;62197;51.632;13.700;2023-07-09T08:44:56;100720.06;;;29.85;41.01
73860;BME280;62197;51.632;13.700;2023-07-09T08:48:05;100715.97;;;29.98;40.53
73860;BME280;62197;51.632;13.700;2023-07-09T08:50:38;100718.72;;;30.10;41.05
73860;BME280;62197;51.632;13.700;2023-07-09T08:53:12;100714.22;;;30.25;41.24
73860;BME280;62197;51.632;13.700;2023-07-09T08:55:42;100713.22;;;30.17;38.49
73860;BME280;62197;51.632;13.700;2023-07-09T08:58:15;100714.47;;;30.04;39.27
73860;BME280;62197;51.632;13.700;2023-07-09T09:03:28;100707.34;;;30.42;42.27
73860;BME280;62197;51.632;13.700;2023-07-09T09:05:55;100712.69;;;30.43;40.82
73860;BME280;62197;51.632;13.700;2023-07-09T09:08:50;100710.09;;;30.54;39.46
73860;BME280;62197;51.632;13.700;2023-07-09T09:11:34;100707.41;;;30.61;38.25
73860;BME280;62197;51.632;13.700;2023-07-09T09:14:16;100704.47;;;30.73;37.26
73860;BME280;62197;51.632;13.700;2023-07-09T09:16:44;100697.00;;;30.84;36.20
73860;BME280;62197;51.632;13.700;2023-07-09T09:19:20;100705.91;;;30.82;35.21
73860;BME280;62197;51.632;13.700;2023-07-09T09:21:50;100713.72;;;31.01;37.63
73860;BME280;62197;51.632;13.700;2023-07-09T09:24:30;100713.41;;;31.06;39.45
73860;BME280;62197;51.632;13.700;2023-07-09T09:26:58;100707.94;;;31.17;39.59
73860;BME280;62197;51.632;13.700;2023-07-09T09:29:24;100714.31;;;31.10;41.39
73860;BME280;62197;51.632;13.700;2023-07-09T09:31:53;100716.56;;;31.01;36.97
73860;BME280;62197;51.632;13.700;2023-07-09T09:34:23;100709.78;;;30.90;37.88
73860;BME280;62197;51.632;13.700;2023-07-09T09:36:49;100711.28;;;31.03;38.44
73860;BME280;62197;51.632;13.700;2023-07-09T09:39:16;100704.28;;;31.16;37.88
73860;BME280;62197;51.632;13.700;2023-07-09T09:41:43;100710.88;;;31.20;39.72
73860;BME280;62197;51.632;13.700;2023-07-09T09:44:18;100706.38;;;31.19;39.01
73860;BME280;62197;51.632;13.700;2023-07-09T09:46:44;100706.69;;;31.14;36.38
73860;BME280;62197;51.632;13.700;2023-07-09T09:49:10;100710.25;;;31.11;33.93
73860;BME280;62197;51.632;13.700;2023-07-09T09:51:39;100704.28;;;31.35;39.54
73860;BME280;62197;51.632;13.700;2023-07-09T09:54:14;100706.56;;;31.45;38.59
73860;BME280;62197;51.632;13.700;2023-07-09T09:56:42;100704.84;;;31.41;35.68
73860;BME280;62197;51.632;13.700;2023-07-09T09:59:17;100705.22;;;31.39;37.56
73860;BME280;62197;51.632;13.700;2023-07-09T10:01:43;100706.63;;;31.68;38.43
73860;BME280;62197;51.632;13.700;2023-07-09T10:04:10;100705.94;;;31.55;34.76
73860;BME280;62197;51.632;13.700;2023-07-09T10:06:43;100704.03;;;31.25;35.70
73860;BME280;62197;51.632;13.700;2023-07-09T10:09:15;100702.75;;;31.38;36.53
73860;BME280;62197;51.632;13.700;2023-07-09T10:11:48;100709.44;;;31.45;32.86
73860;BME280;62197;51.632;13.700;2023-07-09T10:14:28;100698.91;;;31.49;33.12
73860;BME280;62197;51.632;13.700;2023-07-09T10:17:05;100701.44;;;31.54;36.60
73860;BME280;62197;51.632;13.700;2023-07-09T10:19:44;100703.97;;;31.59;32.50
73860;BME280;62197;51.632;13.700;2023-07-09T10:22:20;100701.41;;;31.73;35.92
73860;BME280;62197;51.632;13.700;2023-07-09T10:27:56;100700.72;;;32.22;34.35
73860;BME280;62197;51.632;13.700;2023-07-09T10:30:49;100698.38;;;32.05;33.48
73860;BME280;62197;51.632;13.700;2023-07-09T10:33:28;100701.19;;;32.01;35.33
73860;BME280;62197;51.632;13.700;2023-07-09T10:36:29;100696.00;;;31.87;36.90
73860;BME280;62197;51.632;13.700;2023-07-09T10:39:03;100697.22;;;32.32;33.47
73860;BME280;62197;51.632;13.700;2023-07-09T10:41:31;100698.13;;;32.36;31.13
73860;BME280;62197;51.632;13.700;2023-07-09T10:44:05;100690.53;;;32.21;31.46
73860;BME280;62197;51.632;13.700;2023-07-09T10:46:38;100692.47;;;32.17;32.75
73860;BME280;62197;51.632;13.700;2023-07-09T10:49:10;100693.44;;;32.02;33.12
73860;BME280;62197;51.632;13.700;2023-07-09T10:51:37;100688.59;;;32.06;30.64
73860;BME280;62197;51.632;13.700;2023-07-09T10:54:10;100684.81;;;32.21;36.03
73860;BME280;62197;51.632;13.700;2023-07-09T10:56:39;100689.28;;;32.67;34.90
73860;BME280;62197;51.632;13.700;2023-07-09T10:59:33;100692.94;;;32.94;29.60
73860;BME280;62197;51.632;13.700;2023-07-09T11:02:13;100687.16;;;33.16;34.90
73860;BME280;62197;51.632;13.700;2023-07-09T11:04:57;100683.25;;;32.75;30.47
73860;BME280;62197;51.632;13.700;2023-07-09T11:07:31;100684.97;;;32.80;32.60
73860;BME280;62197;51.632;13.700;2023-07-09T11:09:58;100689.28;;;32.67;29.14
73860;BME280;62197;51.632;13.700;2023-07-09T11:12:33;100688.13;;;33.27;30.44
73860;BME280;62197;51.632;13.700;2023-07-09T11:15:08;100686.06;;;33.57;29.54
73860;BME280;62197;51.632;13.700;2023-07-09T11:17:38;100678.59;;;33.49;30.43
73860;BME280;62197;51.632;13.700;2023-07-09T11:23:20;100672.41;;;35.33;25.97
73860;BME280;62197;51.632;13.700;2023-07-09T11:26:02;100672.91;;;35.49;23.98
73860;BME280;62197;51.632;13.700;2023-07-09T11:28:35;100662.38;;;35.99;26.43
73860;BME280;62197;51.632;13.700;2023-07-09T11:31:06;100662.25;;;35.50;26.13
73860;BME280;62197;51.632;13.700;2023-07-09T11:33:32;100664.88;;;36.21;26.14
73860;BME280;62197;51.632;13.700;2023-07-09T11:36:10;100661.53;;;37.04;24.95
73860;BME280;62197;51.632;13.700;2023-07-09T11:38:42;100661.03;;;37.27;23.53
73860;BME280;62197;51.632;13.700;2023-07-09T11:41:34;100661.47;;;37.22;23.31
73860;BME280;62197;51.632;13.700;2023-07-09T11:46:35;100661.63;;;37.73;24.63
73860;BME280;62197;51.632;13.700;2023-07-09T11:49:01;100660.97;;;37.44;24.48
73860;BME280;62197;51.632;13.700;2023-07-09T11:54:04;100663.59;;;37.93;22.19
73860;BME280;62197;51.632;13.700;2023-07-09T11:56:30;100654.09;;;38.51;23.51
73860;BME280;62197;51.632;13.700;2023-07-09T11:58:57;100646.56;;;38.64;22.55
73860;BME280;62197;51.632;13.700;2023-07-09T12:01:27;100651.50;;;39.01;21.46
73860;BME280;62197;51.632;13.700;2023-07-09T12:03:56;100641.78;;;39.86;21.43
73860;BME280;62197;51.632;13.700;2023-07-09T12:06:26;100642.25;;;40.07;21.99
73860;BME280;62197;51.632;13.700;2023-07-09T12:08:52;100635.50;;;40.17;22.12
73860;BME280;62197;51.632;13.700;2023-07-09T12:14:01;100632.09;;;39.99;22.45
73860;BME280;62197;51.632;13.700;2023-07-09T12:16:33;100632.84;;;39.13;20.71
73860;BME280;62197;51.632;13.700;2023-07-09T12:18:58;100632.75;;;39.80;19.91
73860;BME280;62197;51.632;13.700;2023-07-09T12:21:25;100626.22;;;39.46;21.80
73860;BME280;62197;51.632;13.700;2023-07-09T12:23:53;100624.91;;;38.87;22.11
73860;BME280;62197;51.632;13.700;2023-07-09T12:26:19;100618.84;;;38.30;22.57
73860;BME280;62197;51.632;13.700;2023-07-09T12:28:56;100614.16;;;39.54;22.13
73860;BME280;62197;51.632;13.700;2023-07-09T12:31:26;100615.22;;;40.44;21.92
73860;BME280;62197;51.632;13.700;2023-07-09T12:33:53;100607.66;;;40.50;21.69
73860;BME280;62197;51.632;13.700;2023-07-09T12:36:19;100624.03;;;41.03;19.37
73860;BME280;62197;51.632;13.700;2023-07-09T12:38:49;100616.09;;;41.26;18.57
73860;BME280;62197;51.632;13.700;2023-07-09T12:41:22;100605.06;;;40.32;19.48
73860;BME280;62197;51.632;13.700;2023-07-09T12:43:48;100609.25;;;40.55;19.41
73860;BME280;62197;51.632;13.700;2023-07-09T12:46:14;100593.97;;;39.21;21.76
73860;BME280;62197;51.632;13.700;2023-07-09T12:48:40;100601.16;;;39.96;21.82
73860;BME280;62197;51.632;13.700;2023-07-09T12:51:08;100602.34;;;39.12;21.06
73860;BME280;62197;51.632;13.700;2023-07-09T12:53:33;100590.56;;;40.36;21.41
73860;BME280;62197;51.632;13.700;2023-07-09T12:56:01;100600.84;;;41.03;19.65
73860;BME280;62197;51.632;13.700;2023-07-09T12:58:30;100595.63;;;41.53;19.41
73860;BME280;62197;51.632;13.700;2023-07-09T13:00:57;100591.59;;;41.11;19.55